createdAt,value
2023-05-19T00:02:09.358Z,2.00
2023-05-19T00:04:37.742Z,2.00
2023-05-19T00:07:05.707Z,2.20
2023-05-19T00:09:33.082Z,1.80
2023-05-19T00:12:00.679Z,2.00
2023-05-19T00:14:29.103Z,1.90
2023-05-19T00:16:57.990Z,1.90
2023-05-19T00:19:25.638Z,2.00
2023-05-19T00:21:52.666Z,1.70
2023-05-19T00:24:19.743Z,2.10
2023-05-19T00:26:46.713Z,1.90
2023-05-19T00:29:18.444Z,2.00
2023-05-19T00:31:45.595Z,1.80
2023-05-19T00:34:12.659Z,1.93
2023-05-19T00:36:39.724Z,2.00
2023-05-19T00:39:06.754Z,1.70
2023-05-19T00:41:33.905Z,1.80
2023-05-19T00:44:00.876Z,1.70
2023-05-19T00:46:28.331Z,1.98
2023-05-19T00:48:55.504Z,1.65
2023-05-19T00:51:25.153Z,1.80
2023-05-19T00:53:52.886Z,2.20
2023-05-19T00:56:21.884Z,2.10
2023-05-19T00:58:51.433Z,1.80
2023-05-19T01:01:21.486Z,1.90
2023-05-19T01:03:49.341Z,2.10
2023-05-19T01:06:19.156Z,1.70
2023-05-19T01:08:46.553Z,2.10
2023-05-19T01:11:13.579Z,1.90
2023-05-19T01:13:42.300Z,1.80
2023-05-19T01:16:39.094Z,1.60
2023-05-19T01:19:29.380Z,1.92
2023-05-19T01:22:14.928Z,1.70
2023-05-19T01:24:53.457Z,1.90
2023-05-19T01:27:47.197Z,2.10
2023-05-19T01:30:27.271Z,1.70
2023-05-19T01:32:58.752Z,2.08
2023-05-19T01:35:26.671Z,1.52
2023-05-19T01:37:57.123Z,1.70
2023-05-19T01:40:25.948Z,1.90
2023-05-19T01:42:56.149Z,2.15
2023-05-19T01:45:25.264Z,1.65
2023-05-19T01:47:58.560Z,1.60
2023-05-19T01:50:26.096Z,1.70
2023-05-19T01:52:53.351Z,1.83
2023-05-19T01:55:21.317Z,2.10
2023-05-19T01:58:17.608Z,1.77
2023-05-19T02:00:59.849Z,1.90
2023-05-19T02:03:33.565Z,2.10
2023-05-19T02:06:39.055Z,2.20
2023-05-19T02:09:37.761Z,1.98
2023-05-19T02:12:18.843Z,1.90
2023-05-19T02:14:52.925Z,1.85
2023-05-19T02:17:21.586Z,1.90
2023-05-19T02:19:48.748Z,2.10
2023-05-19T02:22:15.972Z,2.20
2023-05-19T02:24:44.469Z,2.20
2023-05-19T02:27:11.606Z,2.00
2023-05-19T02:29:38.616Z,1.90
2023-05-19T02:32:06.838Z,2.10
2023-05-19T02:34:34.063Z,2.22
2023-05-19T02:37:01.383Z,1.90
2023-05-19T02:39:30.357Z,2.00
2023-05-19T02:41:57.447Z,1.90
2023-05-19T02:44:24.493Z,2.10
2023-05-19T02:46:51.718Z,2.20
2023-05-19T02:49:18.792Z,2.10
2023-05-19T02:51:45.989Z,2.10
2023-05-19T02:54:13.054Z,2.10
2023-05-19T02:56:40.225Z,2.20
2023-05-19T02:59:07.404Z,2.00
2023-05-19T03:01:34.508Z,2.00
2023-05-19T03:04:01.673Z,2.30
2023-05-19T03:06:29.545Z,2.20
2023-05-19T03:08:56.549Z,2.10
2023-05-19T03:11:23.670Z,2.30
2023-05-19T03:13:50.838Z,2.50
2023-05-19T03:16:17.962Z,2.30
2023-05-19T03:18:45.011Z,2.60
2023-05-19T03:21:12.097Z,2.28
2023-05-19T03:23:39.160Z,2.40
2023-05-19T03:26:06.329Z,2.38
2023-05-19T03:28:33.369Z,2.30
2023-05-19T03:31:00.488Z,2.90
2023-05-19T03:33:29.947Z,2.70
2023-05-19T03:35:57.828Z,2.40
2023-05-19T03:38:25.335Z,3.08
2023-05-19T03:40:53.707Z,2.80
2023-05-19T03:43:20.770Z,2.80
2023-05-19T03:45:47.992Z,2.60
2023-05-19T03:48:16.091Z,2.88
2023-05-19T03:50:44.639Z,2.50
2023-05-19T03:53:11.702Z,2.70
2023-05-19T03:55:39.403Z,2.70
2023-05-19T03:58:06.516Z,2.70
2023-05-19T04:00:34.028Z,2.95
2023-05-19T04:03:01.498Z,2.90
2023-05-19T04:05:28.736Z,2.78
2023-05-19T04:07:55.858Z,2.83
2023-05-19T04:10:22.947Z,3.20
2023-05-19T04:12:50.178Z,3.00
2023-05-19T04:15:17.256Z,2.90
2023-05-19T04:17:44.484Z,2.78
2023-05-19T04:20:12.208Z,2.80
2023-05-19T04:22:39.321Z,2.90
2023-05-19T04:25:07.692Z,3.00
2023-05-19T04:27:39.029Z,3.10
2023-05-19T04:30:06.941Z,3.17
2023-05-19T04:32:34.074Z,3.00
2023-05-19T04:35:01.247Z,3.10
2023-05-19T04:37:28.293Z,3.10
2023-05-19T04:39:55.550Z,3.10
2023-05-19T04:42:22.669Z,2.83
2023-05-19T04:44:51.812Z,2.80
2023-05-19T04:47:21.609Z,2.80
2023-05-19T04:49:48.839Z,2.90
2023-05-19T04:52:16.038Z,3.10
2023-05-19T04:54:43.167Z,2.60
2023-05-19T04:57:10.608Z,2.97
2023-05-19T04:59:37.743Z,3.42
2023-05-19T05:02:04.991Z,2.75
2023-05-19T05:04:32.718Z,2.70
2023-05-19T05:06:59.764Z,2.70
2023-05-19T05:09:26.942Z,3.13
2023-05-19T05:11:54.306Z,2.70
2023-05-19T05:14:21.681Z,3.00
2023-05-19T05:16:49.665Z,3.03
2023-05-19T05:19:17.385Z,3.20
2023-05-19T05:21:44.890Z,3.38
2023-05-19T05:24:12.535Z,3.10
2023-05-19T05:26:39.755Z,3.28
2023-05-19T05:29:08.252Z,3.00
2023-05-19T05:31:35.309Z,3.17
2023-05-19T05:34:02.719Z,3.00
2023-05-19T05:36:31.624Z,2.70
2023-05-19T05:38:59.629Z,3.10
2023-05-19T05:41:27.466Z,3.10
2023-05-19T05:43:54.538Z,2.50
2023-05-19T05:46:21.716Z,3.20
2023-05-19T05:48:49.032Z,3.15
2023-05-19T05:51:16.452Z,3.05
2023-05-19T05:53:48.817Z,2.60
2023-05-19T05:56:16.230Z,2.92
2023-05-19T05:58:44.064Z,2.90
2023-05-19T06:01:11.680Z,3.00
2023-05-19T06:03:46.414Z,3.00
2023-05-19T06:06:13.750Z,2.97
2023-05-19T06:08:40.936Z,3.10
2023-05-19T06:11:09.446Z,3.00
2023-05-19T06:13:36.919Z,2.73
2023-05-19T06:16:04.763Z,3.00
2023-05-19T06:18:32.574Z,2.90
2023-05-19T06:20:59.859Z,3.10
2023-05-19T06:23:29.088Z,3.00
2023-05-19T06:25:56.765Z,3.28
2023-05-19T06:28:23.853Z,3.20
2023-05-19T06:30:50.982Z,2.55
2023-05-19T06:33:18.012Z,2.70
2023-05-19T06:35:45.208Z,2.80
2023-05-19T06:38:12.272Z,2.70
2023-05-19T06:40:39.436Z,2.70
2023-05-19T06:43:06.641Z,2.72
2023-05-19T06:45:33.726Z,2.90
2023-05-19T06:48:01.048Z,2.67
2023-05-19T06:50:28.322Z,2.90
2023-05-19T06:52:55.683Z,2.72
2023-05-19T06:55:22.922Z,2.72
2023-05-19T06:57:50.779Z,2.80
2023-05-19T07:00:20.611Z,2.90
2023-05-19T07:02:50.325Z,2.70
2023-05-19T07:05:17.733Z,2.70
2023-05-19T07:07:44.975Z,2.65
2023-05-19T07:10:12.122Z,2.40
2023-05-19T07:12:39.280Z,2.78
2023-05-19T07:15:06.910Z,2.55
2023-05-19T07:17:34.075Z,2.50
2023-05-19T07:20:01.771Z,2.63
2023-05-19T07:22:28.958Z,2.40
2023-05-19T07:24:57.191Z,2.80
2023-05-19T07:27:24.457Z,2.70
2023-05-19T07:29:51.542Z,2.70
2023-05-19T07:32:18.983Z,2.83
2023-05-19T07:34:46.334Z,2.50
2023-05-19T07:37:13.403Z,2.80
2023-05-19T07:39:40.673Z,2.90
2023-05-19T07:42:07.883Z,2.70
2023-05-19T07:44:35.215Z,2.65
2023-05-19T07:47:02.446Z,2.60
2023-05-19T07:49:29.611Z,2.30
2023-05-19T07:51:57.160Z,2.40
2023-05-19T07:54:24.418Z,2.45
2023-05-19T07:56:51.870Z,2.30
2023-05-19T07:59:19.619Z,2.30
2023-05-19T08:01:46.851Z,2.25
2023-05-19T08:04:14.239Z,2.47
2023-05-19T08:06:42.864Z,2.50
2023-05-19T08:09:10.352Z,2.37
2023-05-19T08:11:37.618Z,2.00
2023-05-19T08:14:05.500Z,2.30
2023-05-19T08:16:32.644Z,2.30
2023-05-19T08:19:02.785Z,2.20
2023-05-19T08:21:29.981Z,2.20
2023-05-19T08:23:57.687Z,2.40
2023-05-19T08:26:24.835Z,2.00
2023-05-19T08:28:52.178Z,2.00
2023-05-19T08:31:19.637Z,2.08
2023-05-19T08:33:46.852Z,2.00
2023-05-19T08:36:14.178Z,1.60
2023-05-19T08:38:41.268Z,2.00
2023-05-19T08:41:08.829Z,1.70
2023-05-19T08:43:36.060Z,1.88
2023-05-19T08:46:04.342Z,1.80
2023-05-19T08:48:32.468Z,1.65
2023-05-19T08:51:25.527Z,1.48
2023-05-19T08:53:57.792Z,1.50
2023-05-19T08:56:26.791Z,1.90
2023-05-19T08:58:56.635Z,1.80
2023-05-19T09:01:24.171Z,1.50
2023-05-19T09:03:52.525Z,1.65
2023-05-19T09:06:19.711Z,1.60
2023-05-19T09:08:47.260Z,2.10
2023-05-19T09:11:14.659Z,1.65
2023-05-19T09:13:42.229Z,1.90
2023-05-19T09:16:09.566Z,1.50
2023-05-19T09:18:40.009Z,1.70
2023-05-19T09:21:07.580Z,1.80
2023-05-19T09:23:35.004Z,1.70
2023-05-19T09:26:04.513Z,2.08
2023-05-19T09:28:36.472Z,1.57
2023-05-19T09:31:04.648Z,1.88
2023-05-19T09:33:36.916Z,1.48
2023-05-19T09:36:13.836Z,1.70
2023-05-19T09:38:41.564Z,1.80
2023-05-19T09:41:10.082Z,1.60
2023-05-19T09:43:37.417Z,1.90
2023-05-19T09:46:06.145Z,2.08
2023-05-19T09:48:34.764Z,1.80
2023-05-19T09:51:03.361Z,1.80
2023-05-19T09:53:31.451Z,2.00
2023-05-19T09:55:59.227Z,1.90
2023-05-19T09:58:28.023Z,1.90
2023-05-19T10:00:56.400Z,2.00
2023-05-19T10:03:24.155Z,2.00
2023-05-19T10:05:53.190Z,1.95
2023-05-19T10:08:21.616Z,1.80
2023-05-19T10:10:48.730Z,1.83
2023-05-19T10:13:16.884Z,1.90
2023-05-19T10:15:57.457Z,2.35
2023-05-19T10:18:27.613Z,2.00
2023-05-19T10:20:55.150Z,1.80
2023-05-19T10:23:22.706Z,1.90
2023-05-19T10:25:52.507Z,2.00
2023-05-19T10:28:25.040Z,2.00
2023-05-19T10:30:56.669Z,2.10
2023-05-19T10:33:37.309Z,1.98
2023-05-19T10:36:21.774Z,1.90
2023-05-19T10:38:58.908Z,1.80
2023-05-19T10:41:45.135Z,2.10
2023-05-19T10:44:25.347Z,1.98
2023-05-19T10:46:54.348Z,1.80
2023-05-19T10:49:23.955Z,1.95
2023-05-19T10:51:55.070Z,2.13
2023-05-19T10:54:43.614Z,2.35
2023-05-19T10:57:16.353Z,2.00
2023-05-19T10:59:47.299Z,1.90
2023-05-19T11:02:47.583Z,2.40
2023-05-19T11:05:18.441Z,2.10
2023-05-19T11:08:02.422Z,2.25
2023-05-19T11:10:29.820Z,2.30
2023-05-19T11:13:00.636Z,1.95
2023-05-19T11:15:28.434Z,2.00
2023-05-19T11:17:56.842Z,2.00
2023-05-19T11:20:26.032Z,2.00
2023-05-19T11:23:08.645Z,2.03
2023-05-19T11:26:02.268Z,2.00
2023-05-19T11:28:30.722Z,1.90
2023-05-19T11:30:59.277Z,2.20
2023-05-19T11:33:27.502Z,1.90
2023-05-19T11:35:58.320Z,2.00
2023-05-19T11:38:30.245Z,2.07
2023-05-19T11:40:57.693Z,1.90
2023-05-19T11:43:26.142Z,2.10
2023-05-19T11:45:56.685Z,2.15
2023-05-19T11:48:26.368Z,2.20
2023-05-19T11:50:53.909Z,2.00
2023-05-19T11:53:21.233Z,2.20
2023-05-19T11:55:49.173Z,2.35
2023-05-19T11:58:17.066Z,1.98
2023-05-19T12:00:47.851Z,1.90
2023-05-19T12:03:15.536Z,1.92
2023-05-19T12:05:48.351Z,2.10
2023-05-19T12:08:18.743Z,2.07
2023-05-19T12:10:51.858Z,2.38
2023-05-19T12:13:19.923Z,2.20
2023-05-19T12:15:47.344Z,2.05
2023-05-19T12:18:14.634Z,1.90
2023-05-19T12:20:42.042Z,2.10
2023-05-19T12:23:09.335Z,2.10
2023-05-19T12:25:38.445Z,2.00
2023-05-19T12:28:05.820Z,2.17
2023-05-19T12:30:34.735Z,2.25
2023-05-19T12:33:03.187Z,2.40
2023-05-19T12:35:36.311Z,1.90
2023-05-19T12:38:05.178Z,2.08
2023-05-19T12:40:37.791Z,2.30
2023-05-19T12:43:06.920Z,2.28
2023-05-19T12:45:35.664Z,2.30
2023-05-19T12:48:26.018Z,2.10
2023-05-19T12:50:56.174Z,2.20
2023-05-19T12:53:26.453Z,2.47
2023-05-19T12:55:54.013Z,2.13
2023-05-19T12:58:22.841Z,2.40
2023-05-19T13:00:50.736Z,2.00
2023-05-19T13:03:19.713Z,2.15
2023-05-19T13:05:49.662Z,1.90
2023-05-19T13:08:18.847Z,2.10
2023-05-19T13:10:47.250Z,1.90
2023-05-19T13:13:14.673Z,2.05
2023-05-19T13:15:43.707Z,2.17
2023-05-19T13:18:13.173Z,1.98
2023-05-19T13:20:41.951Z,2.17
2023-05-19T13:23:12.909Z,2.20
2023-05-19T13:25:40.521Z,2.00
2023-05-19T13:28:08.681Z,2.10
2023-05-19T13:30:38.667Z,1.98
2023-05-19T13:33:06.317Z,2.08
2023-05-19T13:35:42.547Z,2.00
2023-05-19T13:38:10.604Z,2.00
2023-05-19T13:40:38.650Z,2.10
2023-05-19T13:43:06.234Z,2.05
2023-05-19T13:45:33.424Z,2.05
2023-05-19T13:48:01.177Z,2.40
2023-05-19T13:50:28.406Z,2.15
2023-05-19T13:52:55.576Z,2.38
2023-05-19T13:55:23.428Z,2.00
2023-05-19T13:57:51.016Z,2.40
2023-05-19T14:00:19.122Z,2.40
2023-05-19T14:02:46.563Z,2.00
2023-05-19T14:05:13.928Z,2.30
2023-05-19T14:07:41.427Z,2.50
2023-05-19T14:10:09.076Z,2.30
2023-05-19T14:12:51.805Z,2.20
2023-05-19T14:15:23.850Z,2.53
2023-05-19T14:17:51.177Z,2.53
2023-05-19T14:20:18.385Z,2.30
2023-05-19T14:22:45.483Z,2.05
2023-05-19T14:25:12.687Z,2.30
2023-05-19T14:27:42.589Z,2.50
2023-05-19T14:30:10.443Z,2.42
2023-05-19T14:32:37.679Z,2.60
2023-05-19T14:35:05.372Z,2.30
2023-05-19T14:37:32.612Z,2.63
2023-05-19T14:39:59.925Z,2.53
2023-05-19T14:42:27.222Z,2.50
2023-05-19T14:44:54.258Z,2.20
2023-05-19T14:47:21.481Z,2.63
2023-05-19T14:49:48.762Z,2.50
2023-05-19T14:52:16.048Z,2.65
2023-05-19T14:54:43.198Z,2.60
2023-05-19T14:57:10.372Z,2.30
2023-05-19T14:59:38.384Z,2.55
2023-05-19T15:02:06.118Z,2.50
2023-05-19T15:04:33.351Z,2.72
2023-05-19T15:09:30.686Z,2.30
2023-05-19T15:11:58.282Z,3.00
2023-05-19T15:14:27.140Z,2.72
2023-05-19T15:16:54.985Z,2.60
2023-05-19T15:19:22.336Z,2.67
2023-05-19T15:21:50.745Z,2.42
2023-05-19T15:24:18.024Z,2.30
2023-05-19T15:26:45.857Z,2.23
2023-05-19T15:29:12.995Z,2.42
2023-05-19T15:31:40.433Z,2.30
2023-05-19T15:34:07.514Z,2.60
2023-05-19T15:36:34.676Z,2.30
2023-05-19T15:39:01.850Z,2.43
2023-05-19T15:41:29.026Z,2.20
2023-05-19T15:43:56.071Z,2.40
2023-05-19T15:46:23.402Z,2.60
2023-05-19T15:48:50.569Z,2.40
2023-05-19T15:51:18.198Z,2.40
2023-05-19T15:53:45.351Z,2.40
2023-05-19T15:56:13.536Z,2.80
2023-05-19T15:58:40.779Z,2.20
2023-05-19T16:01:08.617Z,2.38
2023-05-19T16:03:35.758Z,2.15
2023-05-19T16:06:03.274Z,2.80
2023-05-19T16:08:30.550Z,2.58
2023-05-19T16:10:57.785Z,2.70
2023-05-19T16:13:25.337Z,2.60
2023-05-19T16:15:52.917Z,2.30
2023-05-19T16:18:20.084Z,2.40
2023-05-19T16:20:47.231Z,2.40
2023-05-19T16:23:14.413Z,2.65
2023-05-19T16:25:41.600Z,2.40
2023-05-19T16:28:08.795Z,2.70
2023-05-19T16:30:36.122Z,2.30
2023-05-19T16:33:03.656Z,2.30
2023-05-19T16:35:31.060Z,2.50
2023-05-19T16:37:58.282Z,2.67
2023-05-19T16:40:26.233Z,2.80
2023-05-19T16:42:54.054Z,2.80
2023-05-19T16:45:21.180Z,2.20
2023-05-19T16:47:48.514Z,2.60
2023-05-19T16:50:15.723Z,2.63
2023-05-19T16:52:43.397Z,2.50
2023-05-19T16:55:11.127Z,3.05
2023-05-19T16:57:38.183Z,2.70
2023-05-19T17:00:05.824Z,3.00
2023-05-19T17:02:33.003Z,2.72
2023-05-19T17:05:00.289Z,2.60
2023-05-19T17:07:29.205Z,2.77
2023-05-19T17:09:56.429Z,2.80
2023-05-19T17:12:23.694Z,2.70
2023-05-19T17:14:52.186Z,2.90
2023-05-19T17:17:19.577Z,2.55
2023-05-19T17:19:46.960Z,3.05
2023-05-19T17:22:14.218Z,3.00
2023-05-19T17:24:41.747Z,3.00
2023-05-19T17:27:08.851Z,2.60
2023-05-19T17:29:36.902Z,2.65
2023-05-19T17:32:04.574Z,2.50
2023-05-19T17:34:31.765Z,2.58
2023-05-19T17:36:58.964Z,2.90
2023-05-19T17:39:26.079Z,2.92
2023-05-19T17:41:53.213Z,3.10
2023-05-19T17:44:20.235Z,2.92
2023-05-19T17:46:47.514Z,2.72
2023-05-19T17:49:15.468Z,2.80
2023-05-19T17:51:42.909Z,2.70
2023-05-19T17:54:10.126Z,3.20
2023-05-19T17:56:42.725Z,3.10
2023-05-19T17:59:10.292Z,2.60
2023-05-19T18:01:37.743Z,2.78
2023-05-19T18:04:05.311Z,2.70
2023-05-19T18:06:32.749Z,2.80
2023-05-19T18:09:01.384Z,2.50
2023-05-19T18:11:28.740Z,2.60
2023-05-19T18:13:55.875Z,2.40
2023-05-19T18:16:23.129Z,2.50
2023-05-19T18:18:51.108Z,2.70
2023-05-19T18:21:18.266Z,2.92
2023-05-19T18:23:46.414Z,2.85
2023-05-19T18:26:13.701Z,3.00
2023-05-19T18:28:41.951Z,3.05
2023-05-19T18:31:11.083Z,2.70
2023-05-19T18:33:38.311Z,2.70
2023-05-19T18:36:05.786Z,3.10
2023-05-19T18:38:32.972Z,2.72
2023-05-19T18:41:00.878Z,3.05
2023-05-19T18:43:30.204Z,2.70
2023-05-19T18:45:57.461Z,3.40
2023-05-19T18:48:25.793Z,2.70
2023-05-19T18:50:53.064Z,3.10
2023-05-19T18:53:22.178Z,3.30
2023-05-19T18:55:49.490Z,3.30
2023-05-19T18:58:18.514Z,3.20
2023-05-19T19:00:45.878Z,2.97
2023-05-19T19:03:13.149Z,3.30
2023-05-19T19:05:40.535Z,3.15
2023-05-19T19:08:07.734Z,3.45
2023-05-19T19:10:39.040Z,4.35
2023-05-19T19:13:06.562Z,3.30
2023-05-19T19:15:33.867Z,3.42
2023-05-19T19:18:00.967Z,2.90
2023-05-19T19:20:28.153Z,3.20
2023-05-19T19:22:55.391Z,3.00
2023-05-19T19:25:23.667Z,3.10
2023-05-19T19:27:51.577Z,3.50
2023-05-19T19:30:18.827Z,3.37
2023-05-19T19:32:46.103Z,3.80
2023-05-19T19:35:13.249Z,4.80
2023-05-19T19:37:40.481Z,4.30
2023-05-19T19:40:08.211Z,4.28
2023-05-19T19:42:35.642Z,4.15
2023-05-19T19:45:02.852Z,4.95
2023-05-19T19:47:30.004Z,4.20
2023-05-19T19:49:57.152Z,4.80
2023-05-19T19:52:24.466Z,4.70
2023-05-19T19:54:51.570Z,5.30
2023-05-19T19:57:18.773Z,6.57
2023-05-19T19:59:45.848Z,11.20
2023-05-19T20:02:13.988Z,7.10
2023-05-19T20:04:41.356Z,5.20
2023-05-19T20:07:08.569Z,5.07
2023-05-19T20:09:35.871Z,6.90
2023-05-19T20:12:03.080Z,7.00
2023-05-19T20:14:30.235Z,5.95
2023-05-19T20:16:57.473Z,4.90
2023-05-19T20:19:25.690Z,4.32
2023-05-19T20:21:52.925Z,3.80
2023-05-19T20:24:19.946Z,4.60
2023-05-19T20:26:47.117Z,5.05
2023-05-19T20:29:14.284Z,5.10
2023-05-19T20:31:41.531Z,4.20
2023-05-19T20:34:08.788Z,3.60
2023-05-19T20:36:36.088Z,3.78
2023-05-19T20:39:03.811Z,3.10
2023-05-19T20:41:31.642Z,3.20
2023-05-19T20:43:58.792Z,3.30
2023-05-19T20:46:26.337Z,3.40
2023-05-19T20:48:53.879Z,3.83
2023-05-19T20:51:22.376Z,4.13
2023-05-19T20:53:49.438Z,4.10
2023-05-19T20:56:16.649Z,3.85
2023-05-19T20:58:43.686Z,4.30
2023-05-19T21:01:11.154Z,3.83
2023-05-19T21:03:38.358Z,3.95
2023-05-19T21:06:06.164Z,3.72
2023-05-19T21:08:33.303Z,3.50
2023-05-19T21:11:00.554Z,3.63
2023-05-19T21:13:27.636Z,4.00
2023-05-19T21:15:57.016Z,3.95
2023-05-19T21:18:24.239Z,4.00
2023-05-19T21:20:51.550Z,4.10
2023-05-19T21:23:18.651Z,4.45
2023-05-19T21:25:45.858Z,6.03
2023-05-19T21:28:13.033Z,5.85
2023-05-19T21:30:40.203Z,5.50
2023-05-19T21:33:07.554Z,5.60
2023-05-19T21:35:34.851Z,4.97
2023-05-19T21:38:11.956Z,3.90
2023-05-19T21:40:43.197Z,3.72
2023-05-19T21:43:11.123Z,4.63
2023-05-19T21:45:38.781Z,3.80
2023-05-19T21:48:06.131Z,4.40
2023-05-19T21:50:37.568Z,4.05
2023-05-19T21:53:05.717Z,3.90
2023-05-19T21:55:32.930Z,4.80
2023-05-19T21:58:01.651Z,4.45
2023-05-19T22:00:29.882Z,5.10
2023-05-19T22:02:57.405Z,4.30
2023-05-19T22:05:24.775Z,4.30
2023-05-19T22:07:52.036Z,4.57
2023-05-19T22:10:19.357Z,3.70
2023-05-19T22:12:46.497Z,3.35
2023-05-19T22:15:14.611Z,3.40
2023-05-19T22:17:42.560Z,3.20
2023-05-19T22:20:10.249Z,2.92
2023-05-19T22:22:37.308Z,3.13
2023-05-19T22:25:04.981Z,3.30
2023-05-19T22:27:32.109Z,3.20
2023-05-19T22:30:02.330Z,3.38
2023-05-19T22:32:30.461Z,3.50
2023-05-19T22:34:57.677Z,3.20
2023-05-19T22:37:24.747Z,2.83
2023-05-19T22:39:51.929Z,3.17
2023-05-19T22:42:19.046Z,2.90
2023-05-19T22:44:46.357Z,2.97
2023-05-19T22:47:13.995Z,3.10
2023-05-19T22:49:42.371Z,3.10
2023-05-19T22:52:10.827Z,3.00
2023-05-19T22:54:38.300Z,2.70
2023-05-19T22:57:05.602Z,3.10
2023-05-19T22:59:32.827Z,3.20
2023-05-19T23:01:59.881Z,2.83
2023-05-19T23:04:27.873Z,3.00
2023-05-19T23:06:55.177Z,2.70
2023-05-19T23:09:22.406Z,2.70
2023-05-19T23:11:50.217Z,3.10
2023-05-19T23:14:18.577Z,2.90
2023-05-19T23:16:46.182Z,2.90
2023-05-19T23:19:13.473Z,3.13
2023-05-19T23:21:41.358Z,3.30
2023-05-19T23:24:08.566Z,3.15
2023-05-19T23:26:35.729Z,3.50
2023-05-19T23:29:02.843Z,3.75
2023-05-19T23:31:30.022Z,3.50
2023-05-19T23:33:57.270Z,3.60
2023-05-19T23:36:24.412Z,3.20
2023-05-19T23:38:51.568Z,3.55
2023-05-19T23:41:18.864Z,3.40
2023-05-19T23:43:45.989Z,3.42
2023-05-19T23:46:13.090Z,3.58
2023-05-19T23:48:40.494Z,2.97
2023-05-19T23:51:07.912Z,3.20
2023-05-19T23:53:35.086Z,3.00
2023-05-19T23:56:02.302Z,3.50
2023-05-19T23:58:29.707Z,3.10
